Time;durP1;ratioP1;P1;durP2;ratioP2;P2;SDS_P1;SDS_P2;PMS_P1;PMS_P2;Temp;Humidity;BMP_temperature;BMP_pressure;BME280_temperature;BME280_humidity;BME280_pressure;Samples;Min_cycle;Max_cycle;Signal;HPM_P1;HPM_P2
2022/09/08 00:02:17;;;;;;;15.57;7.75;;;20.20;99.90;;;;;;5111100;28;20028;-85
2022/09/08 00:04:43;;;;;;;11.88;8.35;;;20.10;99.90;;;;;;5110411;28;20024;-84
2022/09/08 00:07:09;;;;;;;14.93;8.35;;;20.10;99.90;;;;;;5113452;28;20036;-82
2022/09/08 00:09:35;;;;;;;17.42;8.40;;;20.00;99.90;;;;;;5117437;28;20054;-83
2022/09/08 00:12:03;;;;;;;11.07;8.45;;;20.00;99.90;;;;;;5112157;28;20095;-85
2022/09/08 00:14:31;;;;;;;14.18;8.30;;;20.00;99.90;;;;;;5111604;28;20111;-84
2022/09/08 00:16:57;;;;;;;11.07;7.63;;;19.90;99.90;;;;;;5093470;28;20035;-82
2022/09/08 00:19:23;;;;;;;14.68;9.85;;;19.80;99.90;;;;;;5113454;28;20028;-83
2022/09/08 00:21:49;;;;;;;12.20;7.55;;;19.70;99.90;;;;;;5094957;28;20073;-83
2022/09/08 00:24:15;;;;;;;13.20;7.85;;;19.60;99.90;;;;;;5111349;28;20040;-84
2022/09/08 00:26:40;;;;;;;14.35;8.18;;;19.60;99.90;;;;;;5109447;28;20036;-82
2022/09/08 00:29:06;;;;;;;14.98;8.60;;;19.50;99.90;;;;;;5113361;28;20040;-82
2022/09/08 00:31:37;;;;;;;10.77;8.00;;;19.50;99.90;;;;;;5116725;28;20024;-83
2022/09/08 00:34:03;;;;;;;10.63;6.97;;;19.40;99.90;;;;;;5116429;28;20039;-83
2022/09/08 00:36:31;;;;;;;11.10;7.82;;;19.50;99.90;;;;;;5111892;28;20103;-82
2022/09/08 00:38:58;;;;;;;12.25;7.20;;;19.50;99.90;;;;;;5113329;28;20012;-81
2022/09/08 00:41:24;;;;;;;8.57;7.35;;;19.60;99.90;;;;;;5113787;28;20079;-82
2022/09/08 00:44:19;;;;;;;11.50;7.55;;;19.70;99.90;;;;;;5114297;28;20020;-82
2022/09/08 00:46:45;;;;;;;13.32;7.55;;;19.70;99.90;;;;;;5117063;28;20051;-81
2022/09/08 00:49:18;;;;;;;13.13;7.60;;;19.70;99.90;;;;;;5117331;28;20051;-81
2022/09/08 00:51:49;;;;;;;16.38;7.57;;;19.80;99.90;;;;;;5101254;28;20048;-79
2022/09/08 00:54:17;;;;;;;11.00;6.57;;;19.80;99.90;;;;;;5118777;28;20043;-80
2022/09/08 00:56:44;;;;;;;9.85;7.00;;;19.80;99.90;;;;;;5118589;28;20015;-81
2022/09/08 00:59:12;;;;;;;12.68;7.47;;;19.80;99.90;;;;;;5118314;28;20024;-84
2022/09/08 01:01:41;;;;;;;14.15;7.72;;;19.80;99.90;;;;;;5118608;28;20042;-80
2022/09/08 01:04:07;;;;;;;9.32;6.93;;;19.80;99.90;;;;;;5118680;28;20038;-81
2022/09/08 01:12:54;;;;;;;12.38;7.80;;;19.50;99.90;;;;;;5118038;28;20028;-82
2022/09/08 01:15:27;;;;;;;13.35;8.63;;;19.50;99.90;;;;;;5118343;28;20016;-82
2022/09/08 01:17:57;;;;;;;14.80;7.43;;;19.50;99.90;;;;;;5084071;28;20092;-80
2022/09/08 01:20:31;;;;;;;13.27;8.65;;;19.40;99.90;;;;;;5100839;28;20020;-81
2022/09/08 01:23:09;;;;;;;13.60;8.15;;;19.40;99.90;;;;;;5118062;28;20020;-82
2022/09/08 01:26:06;;;;;;;13.77;8.20;;;19.30;99.90;;;;;;5118300;28;20080;-81
2022/09/08 01:28:40;;;;;;;13.25;8.05;;;19.30;99.90;;;;;;5056253;28;20068;-83
2022/09/08 01:31:07;;;;;;;13.25;8.10;;;19.30;99.90;;;;;;5115982;28;20032;-83
2022/09/08 01:33:33;;;;;;;10.55;7.80;;;19.40;99.90;;;;;;5115642;28;20011;-83
2022/09/08 01:36:05;;;;;;;19.50;9.30;;;19.60;99.90;;;;;;5098027;28;20039;-82
2022/09/08 01:38:31;;;;;;;14.23;9.75;;;19.60;99.90;;;;;;5114359;28;20483;-82
2022/09/08 01:40:57;;;;;;;13.85;10.35;;;19.60;99.90;;;;;;5117003;28;20028;-85
2022/09/08 01:43:22;;;;;;;13.15;9.80;;;19.60;99.90;;;;;;5115159;28;20059;-82
2022/09/08 01:45:48;;;;;;;19.42;11.63;;;19.40;99.90;;;;;;5111565;28;20024;-83
2022/09/08 01:48:14;;;;;;;15.02;10.73;;;19.30;99.90;;;;;;5091426;28;20024;-83
2022/09/08 01:50:40;;;;;;;17.45;11.60;;;19.30;99.90;;;;;;5110327;28;20020;-86
2022/09/08 01:53:06;;;;;;;14.07;11.40;;;19.20;99.90;;;;;;5093938;28;20091;-84
2022/09/08 01:55:31;;;;;;;16.13;12.57;;;19.10;99.90;;;;;;5111692;28;20035;-85
2022/09/08 01:57:57;;;;;;;16.10;11.73;;;19.00;99.90;;;;;;5109095;28;20060;-84
2022/09/08 02:00:23;;;;;;;18.20;12.23;;;19.00;99.90;;;;;;5109697;28;20084;-84
2022/09/08 02:02:49;;;;;;;15.82;10.57;;;19.10;99.90;;;;;;5099363;28;20051;-83
2022/09/08 02:05:15;;;;;;;18.15;11.65;;;19.20;99.90;;;;;;5121870;28;20046;-84
2022/09/08 02:07:40;;;;;;;22.80;12.55;;;19.30;99.90;;;;;;5121533;28;20018;-83
2022/09/08 02:10:07;;;;;;;18.25;13.50;;;19.30;99.90;;;;;;5121263;28;20020;-82
2022/09/08 02:12:34;;;;;;;37.38;14.90;;;19.30;99.90;;;;;;5109560;28;20040;-82
2022/09/08 02:15:00;;;;;;;23.00;15.38;;;19.20;99.90;;;;;;5109854;28;20030;-83
2022/09/08 02:17:29;;;;;;;23.15;14.77;;;19.20;99.90;;;;;;5119711;28;20036;-83
2022/09/08 02:19:55;;;;;;;22.65;14.63;;;19.20;99.90;;;;;;5081333;28;20202;-84
2022/09/08 02:22:22;;;;;;;26.08;17.08;;;19.20;99.90;;;;;;5085612;28;20044;-82
2022/09/08 02:24:47;;;;;;;23.23;15.13;;;19.30;99.90;;;;;;5081854;28;20035;-84
2022/09/08 02:27:13;;;;;;;22.70;15.63;;;19.30;99.90;;;;;;5107095;28;20024;-85
2022/09/08 02:29:39;;;;;;;24.20;18.52;;;19.30;99.90;;;;;;5106288;28;20012;-85
2022/09/08 02:32:05;;;;;;;27.83;16.60;;;19.30;99.90;;;;;;5105965;28;20028;-84
2022/09/08 02:34:31;;;;;;;19.33;13.80;;;19.20;99.90;;;;;;5098624;28;20013;-85
2022/09/08 02:36:57;;;;;;;23.15;15.10;;;19.20;99.90;;;;;;5093752;28;20036;-84
2022/09/08 02:39:23;;;;;;;24.05;17.33;;;19.30;99.90;;;;;;5084569;28;20484;-83
2022/09/08 02:41:50;;;;;;;24.63;16.55;;;19.30;99.90;;;;;;5098021;28;20036;-84
2022/09/08 02:44:15;;;;;;;26.92;16.85;;;19.20;99.90;;;;;;5074751;28;20032;-84
2022/09/08 02:46:43;;;;;;;23.85;16.20;;;19.20;99.90;;;;;;5095559;28;20086;-85
2022/09/08 02:49:13;;;;;;;31.27;18.83;;;19.10;99.90;;;;;;5095854;28;20020;-85
2022/09/08 02:51:39;;;;;;;21.85;15.60;;;19.00;99.90;;;;;;5091520;28;20512;-84
2022/09/08 02:54:05;;;;;;;24.10;16.73;;;18.80;99.90;;;;;;5100239;28;20036;-86
2022/09/08 02:56:31;;;;;;;24.25;16.75;;;18.80;99.90;;;;;;5090761;28;20028;-83
2022/09/08 02:58:57;;;;;;;24.42;15.80;;;18.90;99.90;;;;;;5089187;28;20369;-84
2022/09/08 03:01:23;;;;;;;24.95;16.23;;;19.10;99.90;;;;;;5084365;28;20038;-85
2022/09/08 03:03:49;;;;;;;25.10;13.10;;;19.40;99.90;;;;;;5066236;28;20467;-83
2022/09/08 03:06:16;;;;;;;22.23;15.70;;;19.50;99.90;;;;;;5084691;28;20032;-84
2022/09/08 03:08:41;;;;;;;22.77;15.50;;;19.60;99.90;;;;;;5078119;28;20054;-83
2022/09/08 03:11:08;;;;;;;23.88;18.52;;;19.60;99.90;;;;;;5096029;28;20020;-85
2022/09/08 03:13:35;;;;;;;20.23;14.57;;;19.50;99.90;;;;;;5083098;28;20033;-84
2022/09/08 03:16:03;;;;;;;22.15;15.13;;;19.40;99.90;;;;;;5065630;28;20030;-84
2022/09/08 03:18:29;;;;;;;19.00;13.85;;;19.50;99.90;;;;;;5104911;28;20034;-85
2022/09/08 03:21:04;;;;;;;28.17;20.05;;;19.50;99.90;;;;;;5091944;28;20032;-85
2022/09/08 03:23:31;;;;;;;25.88;18.90;;;19.40;99.90;;;;;;5085195;28;20028;-83
2022/09/08 03:26:05;;;;;;;24.65;17.85;;;19.30;99.90;;;;;;5093190;28;20036;-81
2022/09/08 03:28:31;;;;;;;36.33;19.13;;;19.20;99.90;;;;;;5066682;28;20092;-87
2022/09/08 03:30:57;;;;;;;24.50;18.50;;;19.20;99.90;;;;;;5105509;28;20055;-85
2022/09/08 03:33:23;;;;;;;27.17;18.52;;;19.10;99.90;;;;;;5109376;28;20029;-85
2022/09/08 03:35:49;;;;;;;28.58;19.65;;;19.00;99.90;;;;;;5098082;28;20023;-85
2022/09/08 03:38:17;;;;;;;26.27;18.55;;;18.90;99.90;;;;;;5096060;28;20043;-87
2022/09/08 03:40:43;;;;;;;25.13;18.58;;;18.90;99.90;;;;;;5098706;28;20422;-83
2022/09/08 03:43:09;;;;;;;27.08;18.83;;;18.80;99.90;;;;;;5092893;28;20259;-85
2022/09/08 03:45:39;;;;;;;29.52;19.38;;;18.80;99.90;;;;;;5094553;28;20023;-85
2022/09/08 03:48:05;;;;;;;24.92;18.85;;;18.90;99.90;;;;;;5087830;28;20024;-85
2022/09/08 03:50:32;;;;;;;26.75;18.85;;;18.90;99.90;;;;;;5096143;28;20035;-84
2022/09/08 03:52:57;;;;;;;30.52;21.02;;;19.00;99.90;;;;;;5094115;28;20396;-83
2022/09/08 03:55:23;;;;;;;30.52;20.73;;;19.00;99.90;;;;;;5095223;28;20035;-85
2022/09/08 03:57:49;;;;;;;29.83;17.50;;;18.90;99.90;;;;;;5096935;28;20028;-84
2022/09/08 04:00:15;;;;;;;28.60;20.05;;;19.10;99.90;;;;;;5086593;28;20088;-86
2022/09/08 04:02:41;;;;;;;26.42;19.08;;;19.30;99.90;;;;;;5086403;28;20085;-86
2022/09/08 04:05:07;;;;;;;24.77;16.33;;;19.20;99.90;;;;;;5104889;28;20126;-85
2022/09/08 04:07:34;;;;;;;25.63;18.73;;;19.30;99.90;;;;;;5086529;28;20476;-85
2022/09/08 04:10:01;;;;;;;22.80;16.70;;;19.30;99.90;;;;;;5105356;28;20512;-85
2022/09/08 04:12:28;;;;;;;25.80;17.30;;;19.40;99.90;;;;;;5107734;28;20061;-85
2022/09/08 04:14:54;;;;;;;28.13;19.98;;;19.40;99.90;;;;;;5096460;28;20479;-85
2022/09/08 04:17:21;;;;;;;28.88;19.83;;;19.30;99.90;;;;;;5088161;28;20036;-87
2022/09/08 04:19:50;;;;;;;30.75;20.17;;;19.10;99.90;;;;;;5107799;28;20020;-87
2022/09/08 04:22:17;;;;;;;28.30;19.52;;;19.00;99.90;;;;;;5089188;28;20051;-86
2022/09/08 04:24:43;;;;;;;24.58;18.65;;;19.00;99.90;;;;;;5107878;28;20073;-85
2022/09/08 04:27:09;;;;;;;28.02;18.23;;;19.00;99.90;;;;;;5107639;28;20048;-83
2022/09/08 04:29:35;;;;;;;25.48;16.73;;;19.10;99.90;;;;;;5106593;28;20093;-85
2022/09/08 04:32:01;;;;;;;27.25;19.23;;;19.30;99.90;;;;;;5087501;28;20034;-86
2022/09/08 04:34:26;;;;;;;18.55;14.73;;;19.40;99.90;;;;;;5106553;28;20024;-86
2022/09/08 04:36:52;;;;;;;22.15;15.70;;;19.40;99.90;;;;;;5107024;28;20027;-85
2022/09/08 04:39:20;;;;;;;25.48;17.85;;;19.60;99.90;;;;;;5072417;28;20028;-86
2022/09/08 04:41:45;;;;;;;27.63;15.07;;;19.70;99.90;;;;;;5090521;28;20051;-86
2022/09/08 04:44:11;;;;;;;21.55;15.35;;;19.80;99.90;;;;;;5110992;28;20107;-83
2022/09/08 04:46:37;;;;;;;21.60;14.82;;;19.90;99.90;;;;;;5117778;28;20043;-84
2022/09/08 04:49:03;;;;;;;22.35;16.55;;;20.10;99.90;;;;;;5111434;28;20054;-83
2022/09/08 04:51:32;;;;;;;26.58;17.05;;;19.90;99.90;;;;;;5109584;28;20028;-83
2022/09/08 04:53:59;;;;;;;21.20;15.98;;;19.90;99.90;;;;;;5097061;28;20016;-84
2022/09/08 04:56:26;;;;;;;21.55;14.98;;;19.70;99.90;;;;;;5115387;28;20120;-84
2022/09/08 04:58:52;;;;;;;25.27;17.20;;;19.80;99.90;;;;;;5115833;28;20009;-85
2022/09/08 05:01:23;;;;;;;19.55;14.82;;;19.80;99.90;;;;;;5115639;28;20062;-85
2022/09/08 05:03:55;;;;;;;26.08;15.48;;;19.90;99.90;;;;;;5115267;28;20045;-86
2022/09/08 05:06:21;;;;;;;23.42;17.05;;;20.00;99.90;;;;;;5099395;28;20040;-84
2022/09/08 05:08:52;;;;;;;24.95;16.65;;;20.00;99.90;;;;;;5110410;28;20420;-83
2022/09/08 05:11:20;;;;;;;23.15;16.77;;;20.00;99.90;;;;;;5096644;28;20038;-85
2022/09/08 05:13:47;;;;;;;29.42;17.00;;;20.10;99.90;;;;;;5079774;23;20052;-79
2022/09/08 05:16:24;;;;;;;27.10;16.60;;;20.00;99.90;;;;;;5068310;28;20538;-78
2022/09/08 05:18:56;;;;;;;28.92;15.98;;;20.10;99.90;;;;;;5061642;28;20112;-80
2022/09/08 05:21:23;;;;;;;21.75;15.85;;;20.20;99.90;;;;;;5066636;28;20564;-80
2022/09/08 05:23:50;;;;;;;20.33;14.55;;;20.20;99.90;;;;;;5077177;28;20025;-79
2022/09/08 05:26:19;;;;;;;17.45;14.52;;;20.30;99.90;;;;;;5078002;28;20037;-83
2022/09/08 05:28:45;;;;;;;20.85;14.15;;;20.40;99.90;;;;;;5075597;28;20495;-79
2022/09/08 05:31:17;;;;;;;23.85;15.27;;;20.60;99.90;;;;;;5078736;28;20051;-79
2022/09/08 05:33:43;;;;;;;20.30;14.77;;;20.60;99.90;;;;;;5087012;28;20012;-78
2022/09/08 05:36:15;;;;;;;23.83;14.02;;;20.50;99.90;;;;;;5068581;28;20101;-79
2022/09/08 05:38:44;;;;;;;26.10;14.40;;;20.40;99.90;;;;;;5068497;28;20048;-79
2022/09/08 05:41:11;;;;;;;19.23;13.98;;;20.60;99.90;;;;;;5067528;28;20051;-78
2022/09/08 05:43:37;;;;;;;22.52;15.35;;;20.90;99.90;;;;;;5081138;28;20115;-78
2022/09/08 05:46:04;;;;;;;17.38;13.18;;;20.80;99.90;;;;;;5065437;28;20029;-78
2022/09/08 05:48:30;;;;;;;21.35;14.45;;;20.80;99.90;;;;;;5083555;28;20025;-78
2022/09/08 05:50:57;;;;;;;21.98;14.73;;;20.70;99.90;;;;;;5065435;28;20029;-78
2022/09/08 05:53:23;;;;;;;19.02;14.77;;;20.70;99.90;;;;;;5083282;28;20024;-79
2022/09/08 05:56:00;;;;;;;37.08;14.55;;;20.70;99.90;;;;;;5064966;28;20131;-77
2022/09/08 05:58:27;;;;;;;24.73;13.20;;;20.70;99.90;;;;;;5077641;28;20203;-79
2022/09/08 06:01:02;;;;;;;22.48;13.52;;;20.80;99.90;;;;;;5080779;28;20027;-77
2022/09/08 06:03:28;;;;;;;23.10;15.82;;;20.90;99.90;;;;;;5081659;28;20036;-78
2022/09/08 06:05:55;;;;;;;20.13;13.57;;;20.80;99.90;;;;;;5040502;28;20506;-79
2022/09/08 06:08:22;;;;;;;17.35;12.90;;;20.80;99.90;;;;;;5063654;28;20033;-78
2022/09/08 06:10:49;;;;;;;15.85;12.35;;;20.80;99.90;;;;;;5063559;28;20102;-79
2022/09/08 06:13:15;;;;;;;19.50;13.70;;;21.00;99.90;;;;;;5063112;28;20033;-79
2022/09/08 06:15:41;;;;;;;23.20;13.65;;;21.20;99.90;;;;;;5080714;28;20042;-78
2022/09/08 06:18:06;;;;;;;21.50;13.82;;;21.30;99.90;;;;;;5086989;28;20096;-78
2022/09/08 06:20:32;;;;;;;21.00;13.48;;;21.40;99.90;;;;;;5064672;28;20020;-77
2022/09/08 06:22:58;;;;;;;21.85;14.30;;;21.40;99.90;;;;;;5078577;28;20032;-78
2022/09/08 06:25:23;;;;;;;21.70;13.73;;;21.50;99.90;;;;;;5077073;28;20040;-78
2022/09/08 06:28:02;;;;;;;17.52;12.75;;;21.40;99.90;;;;;;5081267;28;20013;-78
2022/09/08 06:30:27;;;;;;;26.50;13.43;;;21.30;99.90;;;;;;5059446;28;20033;-77
2022/09/08 06:33:08;;;;;;;20.65;12.07;;;21.20;99.90;;;;;;5081635;28;20241;-79
2022/09/08 06:35:39;;;;;;;27.63;12.93;;;21.00;99.90;;;;;;5076061;28;20040;-78
2022/09/08 06:38:11;;;;;;;20.00;12.55;;;21.00;99.90;;;;;;5075278;28;20133;-78
2022/09/08 06:40:45;;;;;;;17.98;10.95;;;21.00;99.90;;;;;;5059648;28;20036;-76
2022/09/08 06:43:18;;;;;;;16.45;11.43;;;21.20;99.90;;;;;;5076642;28;20058;-77
2022/09/08 06:45:49;;;;;;;16.23;10.30;;;21.40;99.90;;;;;;5079097;28;20029;-77
2022/09/08 06:48:15;;;;;;;15.38;9.68;;;21.50;99.90;;;;;;5060429;28;20113;-77
2022/09/08 06:51:04;;;;;;;11.88;8.02;;;21.70;99.90;;;;;;5079504;28;20024;-78
2022/09/08 06:53:47;;;;;;;12.40;7.53;;;21.80;99.90;;;;;;5057363;28;20032;-78
2022/09/08 06:56:48;;;;;;;11.60;8.10;;;21.90;99.90;;;;;;5073904;28;20131;-78
2022/09/08 06:59:37;;;;;;;11.85;7.65;;;22.00;99.90;;;;;;5052977;28;20403;-78
2022/09/08 07:02:15;;;;;;;12.13;7.45;;;22.00;99.90;;;;;;5058412;28;20085;-79
2022/09/08 07:05:11;;;;;;;13.93;7.40;;;21.90;99.90;;;;;;5060086;28;20042;-78
2022/09/08 07:07:46;;;;;;;13.18;7.60;;;22.20;99.90;;;;;;5077426;28;20056;-79
2022/09/08 07:10:24;;;;;;;13.05;7.63;;;22.30;99.90;;;;;;5059334;28;20079;-79
2022/09/08 07:13:01;;;;;;;10.85;8.05;;;22.30;99.90;;;;;;5059317;28;20036;-78
2022/09/08 07:15:49;;;;;;;15.30;7.85;;;22.30;99.90;;;;;;5074213;28;20059;-77
2022/09/08 07:18:24;;;;;;;14.45;7.60;;;22.20;99.90;;;;;;5054800;28;20036;-76
2022/09/08 07:21:12;;;;;;;15.27;7.80;;;22.20;99.90;;;;;;5077083;28;20127;-79
2022/09/08 07:23:39;;;;;;;11.45;6.85;;;22.10;99.90;;;;;;5057167;28;20090;-77
2022/09/08 07:26:14;;;;;;;19.40;7.75;;;22.10;99.90;;;;;;5056435;28;20111;-77
2022/09/08 07:28:44;;;;;;;10.35;7.38;;;22.20;99.90;;;;;;5060032;28;20050;-79
2022/09/08 07:31:19;;;;;;;12.68;8.05;;;22.40;99.90;;;;;;5077504;28;20078;-79
2022/09/08 07:33:49;;;;;;;15.13;7.45;;;22.70;99.90;;;;;;5077669;28;20456;-78
2022/09/08 07:36:36;;;;;;;16.40;7.45;;;22.90;99.90;;;;;;5077126;28;20025;-78
2022/09/08 07:39:11;;;;;;;12.07;6.88;;;23.00;99.90;;;;;;5078322;28;20043;-79
2022/09/08 07:41:48;;;;;;;9.63;7.25;;;23.10;99.90;;;;;;5060029;28;20035;-78
2022/09/08 07:44:16;;;;;;;11.32;6.25;;;23.30;99.90;;;;;;5081203;28;20029;-79
2022/09/08 07:47:00;;;;;;;10.57;6.13;;;23.40;99.90;;;;;;5083721;28;20025;-78
2022/09/08 07:49:48;;;;;;;11.70;6.63;;;23.40;99.90;;;;;;5081256;28;20534;-77
2022/09/08 07:52:36;;;;;;;12.52;6.28;;;23.40;99.90;;;;;;5076997;28;20086;-77
2022/09/08 07:55:29;;;;;;;11.88;5.97;;;23.40;99.90;;;;;;5078356;28;20037;-77
2022/09/08 07:58:14;;;;;;;9.27;6.18;;;23.30;99.90;;;;;;5075667;28;20021;-77
2022/09/08 08:00:57;;;;;;;9.67;5.80;;;23.30;99.90;;;;;;5058427;28;20028;-77
2022/09/08 08:03:29;;;;;;;18.63;6.82;;;23.30;99.90;;;;;;5078415;28;20448;-78
2022/09/08 08:06:15;;;;;;;7.40;5.22;;;23.30;99.90;;;;;;5058941;28;20043;-78
2022/09/08 08:08:58;;;;;;;11.50;5.00;;;23.10;99.90;;;;;;5062621;28;20030;-77
2022/09/08 08:11:51;;;;;;;12.48;5.22;;;23.20;99.90;;;;;;5059073;28;20040;-77
2022/09/08 08:14:26;;;;;;;7.95;4.78;;;23.30;99.90;;;;;;5040753;28;20044;-78
2022/09/08 08:17:04;;;;;;;9.95;4.97;;;23.10;99.90;;;;;;5077262;28;20044;-77
2022/09/08 08:20:04;;;;;;;15.82;5.00;;;23.10;99.90;;;;;;5078918;28;20103;-77
2022/09/08 08:22:48;;;;;;;11.75;4.88;;;23.20;99.90;;;;;;5067399;28;20119;-78
2022/09/08 08:25:22;;;;;;;10.48;4.78;;;23.30;99.90;;;;;;5088124;28;20052;-77
2022/09/08 08:27:57;;;;;;;9.02;4.95;;;23.40;99.90;;;;;;5074004;28;20017;-78
2022/09/08 08:30:24;;;;;;;14.98;6.07;;;23.60;99.90;;;;;;5075824;28;20111;-78
2022/09/08 08:33:21;;;;;;;9.20;4.55;;;23.70;99.90;;;;;;5072884;28;20400;-80
2022/09/08 08:36:09;;;;;;;10.80;5.03;;;23.80;99.90;;;;;;5054672;28;20031;-80
2022/09/08 08:38:48;;;;;;;9.68;5.28;;;23.90;99.90;;;;;;5072321;28;20056;-77
2022/09/08 08:42:00;;;;;;;8.25;4.57;;;23.90;99.90;;;;;;5072676;28;20035;-77
2022/09/08 08:44:50;;;;;;;7.22;5.38;;;23.90;99.90;;;;;;5069014;28;20041;-79
2022/09/08 08:47:44;;;;;;;12.60;5.28;;;24.00;99.90;;;;;;5075428;28;20067;-79
2022/09/08 08:50:36;;;;;;;6.22;4.68;;;24.20;99.90;;;;;;5077529;28;20029;-79
2022/09/08 08:53:43;;;;;;;12.48;5.45;;;24.40;99.90;;;;;;5060923;28;20025;-79
2022/09/08 08:56:30;;;;;;;10.35;4.65;;;24.60;99.90;;;;;;5042499;28;20032;-79
2022/09/08 08:59:44;;;;;;;7.10;4.72;;;24.70;99.90;;;;;;5057776;28;20039;-79
2022/09/08 09:02:30;;;;;;;15.18;5.57;;;24.90;99.90;;;;;;5018484;28;20116;-80
2022/09/08 09:05:15;;;;;;;14.40;4.90;;;25.10;99.90;;;;;;5077489;28;20117;-81
2022/09/08 09:08:09;;;;;;;7.43;4.85;;;25.40;99.90;;;;;;5083325;28;20609;-79
2022/09/08 09:10:53;;;;;;;8.32;4.55;;;26.00;99.90;;;;;;5085631;28;20024;-78
2022/09/08 09:13:45;;;;;;;14.85;4.63;;;26.30;99.90;;;;;;5069715;28;20039;-78
2022/09/08 09:16:33;;;;;;;7.07;4.53;;;26.40;99.90;;;;;;5063910;28;20032;-77
2022/09/08 09:18:59;;;;;;;6.07;3.97;;;26.70;99.90;;;;;;5074233;28;20016;-78
2022/09/08 09:21:54;;;;;;;6.65;4.25;;;27.50;99.90;;;;;;5067317;28;20025;-79
2022/09/08 09:24:40;;;;;;;7.55;3.58;;;28.60;99.90;;;;;;5049393;28;20040;-78
2022/09/08 09:27:32;;;;;;;10.48;3.80;;;29.80;99.90;;;;;;5035480;28;20044;-77
2022/09/08 09:30:19;;;;;;;6.30;3.53;;;30.90;98.10;;;;;;5061112;28;20062;-79
2022/09/08 09:33:06;;;;;;;7.30;3.58;;;33.20;94.90;;;;;;5084652;28;20039;-79
2022/09/08 09:35:38;;;;;;;8.30;3.38;;;32.80;92.60;;;;;;5065044;28;20033;-78
2022/09/08 09:38:18;;;;;;;7.60;4.20;;;33.00;92.00;;;;;;5086932;28;20049;-78
2022/09/08 09:41:13;;;;;;;10.18;3.97;;;32.60;91.70;;;;;;5084243;28;20012;-78
2022/09/08 09:43:52;;;;;;;10.13;3.88;;;32.10;91.70;;;;;;5035359;28;20008;-79
2022/09/08 09:46:44;;;;;;;12.73;3.78;;;31.80;92.00;;;;;;5071110;28;20039;-79
2022/09/08 09:49:22;;;;;;;10.63;3.60;;;31.80;91.50;;;;;;5085187;28;20021;-78
2022/09/08 09:51:50;;;;;;;9.52;3.92;;;33.00;90.40;;;;;;5070641;28;20028;-78
2022/09/08 09:54:28;;;;;;;7.40;4.20;;;32.30;90.00;;;;;;5083027;28;20028;-77
2022/09/08 09:57:20;;;;;;;9.18;3.80;;;31.10;90.80;;;;;;5066563;28;20048;-78
2022/09/08 10:00:09;;;;;;;8.77;3.35;;;31.50;91.00;;;;;;5068320;28;20044;-79
2022/09/08 10:03:02;;;;;;;8.20;3.90;;;31.80;90.20;;;;;;5084030;28;20036;-78
2022/09/08 10:06:24;;;;;;;12.02;3.60;;;32.60;89.20;;;;;;5085172;28;20039;-85
2022/09/08 10:09:18;;;;;;;11.43;3.95;;;33.00;87.20;;;;;;4988974;28;20031;-82
2022/09/08 10:12:28;;;;;;;6.30;4.10;;;33.90;85.80;;;;;;5094484;28;20044;-84
2022/09/08 10:15:03;;;;;;;8.05;3.75;;;33.50;85.90;;;;;;5064018;28;20028;-85
2022/09/08 10:17:44;;;;;;;10.57;3.63;;;35.20;83.00;;;;;;5063600;28;20381;-84
2022/09/08 10:20:47;;;;;;;7.82;3.70;;;35.20;82.10;;;;;;5079066;28;20029;-84
2022/09/08 10:23:56;;;;;;;8.32;4.03;;;37.10;78.30;;;;;;5050165;28;20425;-83
2022/09/08 10:26:57;;;;;;;7.15;3.42;;;38.40;74.40;;;;;;5084480;28;20516;-85
2022/09/08 10:29:36;;;;;;;6.55;3.40;;;37.70;72.90;;;;;;5075279;28;20016;-83
2022/09/08 10:32:11;;;;;;;9.07;3.75;;;36.90;73.70;;;;;;5094911;28;20031;-81
2022/09/08 10:34:47;;;;;;;9.52;4.15;;;37.00;73.70;;;;;;5082520;28;20035;-83
2022/09/08 10:37:35;;;;;;;8.63;4.28;;;37.90;71.60;;;;;;5065341;28;20436;-82
2022/09/08 10:40:07;;;;;;;16.85;4.35;;;38.40;70.20;;;;;;5065875;28;20059;-81
2022/09/08 10:42:44;;;;;;;10.32;4.35;;;37.70;70.20;;;;;;5081666;28;20036;-82
2022/09/08 10:45:40;;;;;;;12.95;4.43;;;37.70;70.70;;;;;;5081140;28;20100;-82
2022/09/08 10:48:43;;;;;;;8.05;4.57;;;38.30;69.90;;;;;;5089438;28;20024;-82
2022/09/08 10:51:17;;;;;;;7.63;4.78;;;38.80;69.00;;;;;;5083433;28;20025;-82
2022/09/08 10:54:00;;;;;;;7.93;4.28;;;38.90;68.80;;;;;;5080994;28;20033;-83
2022/09/08 10:56:27;;;;;;;5.18;4.07;;;39.00;68.40;;;;;;5088682;28;20024;-81
2022/09/08 10:59:15;;;;;;;11.55;5.13;;;39.00;68.50;;;;;;5074350;28;20028;-82
2022/09/08 11:01:54;;;;;;;13.48;5.28;;;38.80;68.90;;;;;;5081994;28;20028;-84
2022/09/08 11:04:50;;;;;;;8.27;4.95;;;37.60;70.00;;;;;;5083254;28;20025;-84
2022/09/08 11:07:28;;;;;;;17.92;5.15;;;37.10;70.70;;;;;;5068736;28;20075;-82
2022/09/08 11:10:25;;;;;;;10.23;4.97;;;37.10;70.90;;;;;;5089227;28;20090;-83
2022/09/08 11:16:13;;;;;;;9.75;4.72;;;35.10;74.00;;;;;;4828378;26;20055;-88
2022/09/08 11:20:02;;;;;;;8.75;4.75;;;34.50;75.10;;;;;;5060320;28;20091;-89
2022/09/08 11:23:36;;;;;;;11.52;4.78;;;34.30;75.50;;;;;;5060903;28;20033;-87
2022/09/08 11:26:42;;;;;;;11.70;5.10;;;33.90;76.50;;;;;;5064992;28;20091;-87
2022/09/08 11:33:34;;;;;;;12.75;5.50;;;33.30;78.70;;;;;;5044441;28;20039;-87
2022/09/08 11:36:36;;;;;;;;;;;;;;;;;;;;;
2022/09/08 11:44:02;;;;;;;14.65;6.07;;;31.40;80.80;;;;;;5040754;28;20105;-88
2022/09/08 11:55:34;;;;;;;;;;;;;;;;;;;;;
2022/09/08 11:59:15;;;;;;;16.17;6.03;;;27.80;90.00;;;;;;5066873;28;20057;-87
2022/09/08 12:02:09;;;;;;;22.05;6.32;;;27.20;91.50;;;;;;5033035;28;20068;-88
2022/09/08 12:05:33;;;;;;;16.35;5.28;;;26.90;92.20;;;;;;5040866;28;20055;-88
2022/09/08 12:08:20;;;;;;;10.75;5.28;;;26.70;93.10;;;;;;5044466;28;20028;-85
2022/09/08 12:11:13;;;;;;;7.38;4.60;;;26.50;93.60;;;;;;5043464;28;20040;-86
2022/09/08 12:14:05;;;;;;;11.73;5.72;;;26.10;94.50;;;;;;5044306;28;20049;-88
2022/09/08 12:17:10;;;;;;;;;;;;;;;;;;;;;
2022/09/08 12:20:32;;;;;;;8.55;5.47;;;25.80;96.50;;;;;;5061651;28;20020;-85
2022/09/08 12:23:21;;;;;;;17.42;5.72;;;25.80;97.50;;;;;;5018088;28;20033;-86
2022/09/08 12:26:28;;;;;;;15.80;5.65;;;25.70;98.20;;;;;;5061191;28;20048;-85
2022/09/08 12:29:13;;;;;;;10.18;5.05;;;25.50;99.00;;;;;;5043780;28;20056;-86
2022/09/08 12:31:39;;;;;;;;;;;25.30;99.90;;;;;;5070842;28;20033;-84
2022/09/08 12:34:38;;;;;;;9.85;5.57;;;25.00;99.90;;;;;;5066247;28;19920;-83
2022/09/08 12:37:13;;;;;;;9.38;5.20;;;24.50;99.90;;;;;;5057634;28;20037;-82
2022/09/08 12:40:11;;;;;;;18.92;6.03;;;24.30;99.90;;;;;;5056931;28;20066;-85
2022/09/08 12:42:58;;;;;;;16.10;5.38;;;24.00;99.90;;;;;;5039179;28;20042;-86
2022/09/08 12:45:33;;;;;;;11.20;5.47;;;23.90;99.90;;;;;;5055728;28;20033;-84
2022/09/08 12:48:24;;;;;;;16.13;5.90;;;23.60;99.90;;;;;;5056514;28;20033;-84
2022/09/08 12:51:21;;;;;;;12.30;5.20;;;23.40;99.90;;;;;;5056805;28;20056;-84
2022/09/08 12:53:55;;;;;;;16.42;5.40;;;23.20;99.90;;;;;;5067595;28;20029;-86
2022/09/08 12:56:21;;;;;;;;;;;22.90;99.90;;;;;;5050437;28;20033;-84
2022/09/08 12:59:24;;;;;;;11.43;5.10;;;22.80;99.90;;;;;;5073798;28;19936;-85
2022/09/08 13:01:58;;;;;;;9.43;4.40;;;22.50;99.90;;;;;;5055906;28;20033;-83
2022/09/08 13:04:42;;;;;;;9.85;4.43;;;22.30;99.90;;;;;;5039700;28;20032;-83
2022/09/08 13:07:35;;;;;;;13.35;5.07;;;22.10;99.90;;;;;;5071911;28;20044;-86
2022/09/08 13:10:09;;;;;;;10.00;4.38;;;22.00;99.90;;;;;;5052998;28;20035;-88
2022/09/08 13:12:45;;;;;;;6.72;4.20;;;21.90;99.90;;;;;;5072964;28;20029;-87
2022/09/08 13:15:23;;;;;;;7.20;3.75;;;21.90;99.90;;;;;;5066507;28;20043;-87
2022/09/08 13:18:07;;;;;;;7.07;3.85;;;21.90;99.90;;;;;;5055657;28;20081;-87
2022/09/08 13:21:02;;;;;;;5.65;3.72;;;21.70;99.90;;;;;;5070290;28;20010;-87
2022/09/08 13:23:52;;;;;;;5.78;4.00;;;21.80;99.90;;;;;;5035030;28;20040;-86
2022/09/08 13:26:52;;;;;;;7.40;3.90;;;21.70;99.90;;;;;;5033433;28;20046;-86
2022/09/08 13:29:27;;;;;;;5.57;3.55;;;21.70;99.90;;;;;;5051864;28;20030;-85
2022/09/08 13:31:53;;;;;;;5.00;3.15;;;21.70;99.90;;;;;;5052964;28;20061;-85
2022/09/08 13:35:00;;;;;;;6.55;2.92;;;21.60;99.90;;;;;;5068228;28;20281;-86
2022/09/08 13:37:44;;;;;;;8.40;3.85;;;21.50;99.90;;;;;;5048441;28;20115;-85
2022/09/08 13:40:39;;;;;;;4.93;2.78;;;21.40;99.90;;;;;;5042513;28;20068;-86
2022/09/08 13:43:14;;;;;;;;;;;21.40;99.90;;;;;;5044841;28;20049;-86
2022/09/08 13:46:26;;;;;;;4.38;3.00;;;21.40;99.90;;;;;;5061799;28;19913;-84
2022/09/08 13:49:19;;;;;;;5.63;2.97;;;21.20;99.90;;;;;;5028489;28;20052;-87
2022/09/08 13:52:10;;;;;;;3.55;2.40;;;21.00;99.90;;;;;;5059866;28;20028;-89
2022/09/08 13:54:58;;;;;;;5.63;2.47;;;21.00;99.90;;;;;;5049700;28;20107;-87
2022/09/08 13:57:48;;;;;;;4.03;2.67;;;21.00;99.90;;;;;;5051106;28;20036;-86
2022/09/08 14:00:21;;;;;;;8.68;2.75;;;20.80;99.90;;;;;;5066417;28;20073;-85